< Typhoon 201723 2017 Season Typhoon 201725 >
Typhoon 201724 (HAIKUI)
General InformationTrack Information on Google MapsDetailed Wind InformationForecast History on Google MapsAccess Analytics MapList of All Images || NewsDisaster Info.WeblogTrackbackTyphoon FrontTwiphoonTyphoon Now!Typhoon ImaginationJMA Disaster Info. XMLResourceGoogle EarthGE AnimationAtom FeedGeoJSON
Detalied Best Track (Time Zone = UTC)
Year Month Day Hour Lat. Long. Pressure (hPa) Wind (kt) Class Image Chart
2017 11 7 12 10.1 134.2 1008 0 2 Image Chart
2017 11 7 18 10.5 132.2 1006 0 2 Image Chart
2017 11 8 00 10.7 130.6 1006 0 2 Image Chart
2017 11 8 06 11.0 129.0 1004 0 2 Image Chart
2017 11 8 12 11.3 127.1 1006 0 2 Image Chart
2017 11 8 18 12.1 125.6 1004 0 2 Image Chart
2017 11 9 00 12.7 124.3 1006 0 2 Image Chart
2017 11 9 06 13.3 122.8 1004 0 2 Image Chart
2017 11 9 12 13.8 121.5 1004 0 2 Image Chart
2017 11 9 18 14.4 120.3 1004 0 2 Image Chart
2017 11 10 00 15.0 119.2 1002 35 3 Image Chart
2017 11 10 06 15.9 118.5 1002 35 3 Image Chart
2017 11 10 12 16.9 117.6 1002 35 3 Image Chart
2017 11 10 18 17.2 117.0 1000 35 3 Image Chart
2017 11 11 00 17.6 116.2 998 40 3 Image Chart
2017 11 11 06 18.1 115.0 998 40 3 Image Chart
2017 11 11 12 18.1 114.3 998 40 3 Image Chart
2017 11 11 18 17.9 113.6 1000 35 3 Image Chart
2017 11 12 00 17.8 113.0 1002 35 3 Image Chart
2017 11 12 06 17.5 112.3 1006 0 2 Image Chart
2017 11 12 12 17.3 111.8 1008 0 2 Image Chart
2017 11 12 18 17.5 111.1 1008 0 2 Image Chart
2017 11 13 00 17.5 110.5 1008 0 2 Image Chart
Japan Meteorological Agency Best Track Data | Correction Date : 2017-12-12
< Typhoon 201723 2017 Season Typhoon 201725 >

Help